Aérodrome :
LOGIN :

S'inscrire | Disclaimer

   EN    FR    IT 

 










Légende :    VFR   VFR Marginal   IFR   IFR Intensif   IFR Très Intensif
Visi : 
Plafond : 
>= 8 km
>= 3000ft
5 à 8 km
1000 à 3000 ft
1500m à 5 km
500 à 1000 ft
800 à 1500m
200 à 500 ft
< 800m
< 200 ft
Symboles :   Orages  Brouillard  Fortes neiges  Fortes précipitations  Vent > 20 kt
SIGMETs :   Divers  Orages  Givrage  Turbulence  Onde Orograph.  Cendres Volcan.






- Altitude de l'aérodrome : 2001 ft
- Code IATA : MAD


LEMD - Madrid

DERNIER METAR :
  • 240530Z 06003KT 020V100 CAVOK 03/M02 Q1020 NOSIG

METARs EXPIRÉS :
  • 240500Z 07002KT CAVOK 03/M02 Q1020 NOSIG
  • 240430Z VRB01KT CAVOK 03/M01 Q1020 NOSIG
  • 240400Z 00000KT CAVOK 04/M01 Q1020 NOSIG
  • 240330Z VRB02KT CAVOK 04/M01 Q1020 NOSIG
  • 240300Z 34003KT 300V020 CAVOK 03/M02 Q1020 NOSIG
  • 240230Z 36004KT CAVOK 05/M01 Q1020 NOSIG
  • 240200Z 01006KT 340V070 CAVOK 06/M01 Q1020 NOSIG
  • 240130Z 01006KT CAVOK 06/M00 Q1020 NOSIG
  • 240100Z 01007KT 340V050 CAVOK 07/M00 Q1020 NOSIG

TAF TAF LEMD
Valide du 24 à 06h jusqu'au 25 à 12h UTC


240500Z 2406/2512 VRB04KT CAVOK TX18/2415Z TN03/2406Z



MET'MAP, la Météo Aéronautique d'un coup d'oeil ! - Copyright ORBIFLY Décembre 2007 - Disclaimer

ORBIFLY MET'MAP TEAM :

Programmation & Développement : Alexandra Zaïnal
Sur une idée originale de : Baudouin d'Aumeries
Soutien technique & logistique : Manuel Goepfert
Assistance : Marc-Olivier Méhu




SOURCES & CREDITS :

   NOAA